createdAt,value
2023-01-11T00:01:45.412Z,80.20
2023-01-11T00:03:48.207Z,80.40
2023-01-11T00:05:50.933Z,80.40
2023-01-11T00:07:53.922Z,80.50
2023-01-11T00:09:56.694Z,80.80
2023-01-11T00:12:00.747Z,80.90
2023-01-11T00:14:03.690Z,80.80
2023-01-11T00:16:07.434Z,81.00
2023-01-11T00:18:10.804Z,81.00
2023-01-11T00:20:13.540Z,80.90
2023-01-11T00:22:16.328Z,81.10
2023-01-11T00:24:19.052Z,81.20
2023-01-11T00:26:21.820Z,81.40
2023-01-11T00:28:25.823Z,81.40
2023-01-11T00:30:28.618Z,81.40
2023-01-11T00:32:31.412Z,81.60
2023-01-11T00:34:34.113Z,81.40
2023-01-11T00:36:36.816Z,81.50
2023-01-11T00:38:46.974Z,81.70
2023-01-11T00:40:49.778Z,81.70
2023-01-11T00:43:09.493Z,81.90
2023-01-11T00:45:31.106Z,81.90
2023-01-11T00:47:51.344Z,82.10
2023-01-11T00:49:54.032Z,82.00
2023-01-11T00:51:57.005Z,82.10
2023-01-11T00:53:59.729Z,82.20
2023-01-11T00:56:02.460Z,82.10
2023-01-11T00:58:05.603Z,82.30
2023-01-11T01:00:09.750Z,82.20
2023-01-11T01:02:14.317Z,82.30
2023-01-11T01:04:17.094Z,82.40
2023-01-11T01:06:19.883Z,82.50
2023-01-11T01:08:22.677Z,82.30
2023-01-11T01:10:25.433Z,82.40
2023-01-11T01:12:45.918Z,82.20
2023-01-11T01:14:48.813Z,82.20
2023-01-11T01:16:52.059Z,82.90
2023-01-11T01:18:57.235Z,82.30
2023-01-11T01:20:59.939Z,82.30
2023-01-11T01:23:02.650Z,82.40
2023-01-11T01:25:05.963Z,82.50
2023-01-11T01:27:08.841Z,82.50
2023-01-11T01:29:11.832Z,82.60
2023-01-11T01:31:14.985Z,82.80
2023-01-11T01:33:17.697Z,82.70
2023-01-11T01:35:21.729Z,82.80
2023-01-11T01:37:24.575Z,82.80
2023-01-11T01:39:27.438Z,83.00
2023-01-11T01:41:30.270Z,83.20
2023-01-11T01:43:51.805Z,83.20
2023-01-11T01:45:56.091Z,83.30
2023-01-11T01:48:01.462Z,83.40
2023-01-11T01:50:10.933Z,83.50
2023-01-11T01:52:15.034Z,83.70
2023-01-11T01:54:23.757Z,83.90
2023-01-11T01:56:30.943Z,83.80
2023-01-11T01:58:40.348Z,83.90
2023-01-11T02:00:46.147Z,84.00
2023-01-11T02:02:48.452Z,84.00
2023-01-11T02:04:52.330Z,84.00
2023-01-11T02:07:00.495Z,84.00
2023-01-11T02:09:09.027Z,83.90
2023-01-11T02:11:29.541Z,83.80
2023-01-11T02:13:45.912Z,83.90
2023-01-11T02:16:07.412Z,83.90
2023-01-11T02:18:12.034Z,83.90
2023-01-11T02:20:45.761Z,83.10
2023-01-11T02:23:25.160Z,83.00
2023-01-11T02:26:03.190Z,84.10
2023-01-11T02:28:12.693Z,84.40
2023-01-11T02:30:20.993Z,84.30
2023-01-11T02:32:32.344Z,84.30
2023-01-11T02:34:43.224Z,83.30
2023-01-11T02:37:03.009Z,83.30
2023-01-11T02:39:14.363Z,83.10
2023-01-11T02:41:22.446Z,83.20
2023-01-11T02:43:49.695Z,83.10
2023-01-11T02:45:59.329Z,83.20
2023-01-11T02:48:07.452Z,82.90
2023-01-11T02:50:17.545Z,82.70
2023-01-11T02:52:27.653Z,83.00
2023-01-11T02:54:32.026Z,82.90
2023-01-11T02:56:39.886Z,83.10
2023-01-11T02:58:47.244Z,83.00
2023-01-11T03:00:51.166Z,83.10
2023-01-11T03:03:17.020Z,83.10
2023-01-11T03:05:19.756Z,83.10
2023-01-11T03:07:39.489Z,82.90
2023-01-11T03:09:55.986Z,83.10
2023-01-11T03:12:30.164Z,83.10
2023-01-11T03:14:46.217Z,83.00
2023-01-11T03:16:56.438Z,82.90
2023-01-11T03:19:10.563Z,83.20
2023-01-11T03:21:25.311Z,83.30
2023-01-11T03:23:35.310Z,83.40
2023-01-11T03:25:48.424Z,83.50
2023-01-11T03:27:54.555Z,83.40
2023-01-11T03:30:07.550Z,83.40
2023-01-11T03:32:19.380Z,83.30
2023-01-11T03:34:30.957Z,83.50
2023-01-11T03:36:37.894Z,83.70
2023-01-11T03:38:44.418Z,83.70
2023-01-11T03:40:50.523Z,83.60
2023-01-11T03:43:13.973Z,83.70
2023-01-11T03:45:18.361Z,83.80
2023-01-11T03:47:24.842Z,83.90
2023-01-11T03:49:31.067Z,83.80
2023-01-11T03:51:39.254Z,84.00
2023-01-11T03:53:45.316Z,83.70
2023-01-11T03:55:53.020Z,83.60
2023-01-11T03:57:56.587Z,83.80
2023-01-11T03:59:59.453Z,83.80
2023-01-11T04:02:03.744Z,83.90
2023-01-11T04:04:06.675Z,84.00
2023-01-11T04:06:12.499Z,83.90
2023-01-11T04:08:15.312Z,84.00
2023-01-11T04:10:18.243Z,84.00
2023-01-11T04:12:21.011Z,83.70
2023-01-11T04:14:23.788Z,83.80
2023-01-11T04:16:26.507Z,83.90
2023-01-11T04:18:30.868Z,84.20
2023-01-11T04:20:33.878Z,84.20
2023-01-11T04:22:36.647Z,84.40
2023-01-11T04:24:39.359Z,84.10
2023-01-11T04:26:42.181Z,84.40
2023-01-11T04:28:45.010Z,84.50
2023-01-11T04:30:47.750Z,84.40
2023-01-11T04:32:50.683Z,84.60
2023-01-11T04:34:54.702Z,84.60
2023-01-11T04:36:57.443Z,84.80
2023-01-11T04:39:00.199Z,84.90
2023-01-11T04:41:29.061Z,84.90
2023-01-11T04:43:31.761Z,84.90
2023-01-11T04:45:34.549Z,84.70
2023-01-11T04:47:37.312Z,84.80
2023-01-11T04:49:40.013Z,84.70
2023-01-11T04:51:44.191Z,84.70
2023-01-11T04:53:48.521Z,85.50
2023-01-11T04:55:53.512Z,85.00
2023-01-11T04:57:56.512Z,85.00
2023-01-11T04:59:59.235Z,85.20
2023-01-11T05:02:01.917Z,85.10
2023-01-11T05:04:04.905Z,85.20
2023-01-11T05:06:08.951Z,85.20
2023-01-11T05:08:12.957Z,85.30
2023-01-11T05:10:15.708Z,85.40
2023-01-11T05:12:18.735Z,85.40
2023-01-11T05:14:21.529Z,85.40
2023-01-11T05:16:25.293Z,85.30
2023-01-11T05:18:28.048Z,85.50
2023-01-11T05:20:30.784Z,85.30
2023-01-11T05:22:33.487Z,85.40
2023-01-11T05:24:37.718Z,85.40
2023-01-11T05:26:42.347Z,85.50
2023-01-11T05:28:45.452Z,85.50
2023-01-11T05:30:52.651Z,85.70
2023-01-11T05:32:56.363Z,85.90
2023-01-11T05:34:59.129Z,85.90
2023-01-11T05:37:01.922Z,85.90
2023-01-11T05:39:06.167Z,85.90
2023-01-11T05:41:11.986Z,86.20
2023-01-11T05:43:17.423Z,86.50
2023-01-11T05:45:32.903Z,86.30
2023-01-11T05:47:35.773Z,86.50
2023-01-11T05:49:38.514Z,86.50
2023-01-11T05:51:42.280Z,86.30
2023-01-11T05:53:45.012Z,86.30
2023-01-11T05:55:54.761Z,86.40
2023-01-11T05:57:58.793Z,86.50
2023-01-11T06:00:01.534Z,86.60
2023-01-11T06:02:04.373Z,86.70
2023-01-11T06:04:08.426Z,86.70
2023-01-11T06:06:11.414Z,86.90
2023-01-11T06:08:14.698Z,86.80
2023-01-11T06:10:17.784Z,86.70
2023-01-11T06:12:20.537Z,86.70
2023-01-11T06:14:24.607Z,86.70
2023-01-11T06:16:27.336Z,86.70
2023-01-11T06:18:31.787Z,86.90
2023-01-11T06:20:34.455Z,87.20
2023-01-11T06:22:37.167Z,87.10
2023-01-11T06:24:39.848Z,87.50
2023-01-11T06:26:42.561Z,87.50
2023-01-11T06:28:45.724Z,87.80
2023-01-11T06:30:53.955Z,87.90
2023-01-11T06:32:59.876Z,88.00
2023-01-11T06:35:02.582Z,87.90
2023-01-11T06:37:05.309Z,88.00
2023-01-11T06:39:08.042Z,88.20
2023-01-11T06:41:11.954Z,88.30
2023-01-11T06:43:14.641Z,88.40
2023-01-11T06:45:17.430Z,88.40
2023-01-11T06:47:21.468Z,88.50
2023-01-11T06:49:24.428Z,88.70
2023-01-11T06:51:27.108Z,88.70
2023-01-11T06:53:29.831Z,88.70
2023-01-11T06:55:32.834Z,88.80
2023-01-11T06:57:35.544Z,88.80
2023-01-11T06:59:39.438Z,88.80
2023-01-11T07:01:42.504Z,88.90
2023-01-11T07:03:46.640Z,89.20
2023-01-11T07:05:49.414Z,89.20
2023-01-11T07:07:52.110Z,89.10
2023-01-11T07:09:54.881Z,89.20
2023-01-11T07:11:57.743Z,89.20
2023-01-11T07:14:00.479Z,89.40
2023-01-11T07:16:03.285Z,89.20
2023-01-11T07:18:06.144Z,89.20
2023-01-11T07:20:11.941Z,89.10
2023-01-11T07:22:16.062Z,89.20
2023-01-11T07:24:19.779Z,89.20
2023-01-11T07:26:22.565Z,89.20
2023-01-11T07:28:28.287Z,89.20
2023-01-11T07:30:32.891Z,89.20
2023-01-11T07:32:37.025Z,89.30
2023-01-11T07:34:39.743Z,89.50
2023-01-11T07:36:43.776Z,89.60
2023-01-11T07:38:48.395Z,89.30
2023-01-11T07:40:53.085Z,89.50
2023-01-11T07:43:15.988Z,89.60
2023-01-11T07:45:20.458Z,89.40
2023-01-11T07:47:23.240Z,89.40
2023-01-11T07:49:26.001Z,89.60
2023-01-11T07:51:28.721Z,89.40
2023-01-11T07:53:33.046Z,89.20
2023-01-11T07:55:36.030Z,89.30
2023-01-11T07:57:38.723Z,89.40
2023-01-11T07:59:41.614Z,89.20
2023-01-11T08:01:44.354Z,89.10
2023-01-11T08:03:47.139Z,89.10
2023-01-11T08:05:52.352Z,89.10
2023-01-11T08:07:55.068Z,89.40
2023-01-11T08:09:59.097Z,89.50
2023-01-11T08:12:19.310Z,89.50
2023-01-11T08:14:40.454Z,89.50
2023-01-11T08:16:43.211Z,89.50
2023-01-11T08:18:46.188Z,89.60
2023-01-11T08:20:48.995Z,89.50
2023-01-11T08:22:51.736Z,89.60
2023-01-11T08:24:54.469Z,89.60
2023-01-11T08:26:58.621Z,89.60
2023-01-11T08:29:01.429Z,89.50
2023-01-11T08:31:08.512Z,89.50
2023-01-11T08:33:11.365Z,89.50
2023-01-11T08:35:14.192Z,89.70
2023-01-11T08:37:16.940Z,90.00
2023-01-11T08:39:19.643Z,89.40
2023-01-11T08:41:22.538Z,89.70
2023-01-11T08:43:26.627Z,89.30
2023-01-11T08:45:29.442Z,89.40
2023-01-11T08:47:32.125Z,89.70
2023-01-11T08:49:34.908Z,89.40
2023-01-11T08:51:37.654Z,89.80
2023-01-11T08:53:40.506Z,89.70
2023-01-11T08:55:44.647Z,89.80
2023-01-11T08:57:47.381Z,89.80
2023-01-11T08:59:51.390Z,89.80
2023-01-11T09:01:54.171Z,89.80
2023-01-11T09:03:56.920Z,89.70
2023-01-11T09:05:59.602Z,89.80
2023-01-11T09:08:02.323Z,90.00
2023-01-11T09:10:05.539Z,89.90
2023-01-11T09:12:08.573Z,90.00
2023-01-11T09:14:11.963Z,90.00
2023-01-11T09:16:16.043Z,90.00
2023-01-11T09:18:18.806Z,90.00
2023-01-11T09:20:22.549Z,90.00
2023-01-11T09:22:25.342Z,90.00
2023-01-11T09:24:28.066Z,90.10
2023-01-11T09:26:31.012Z,90.00
2023-01-11T09:28:33.712Z,90.10
2023-01-11T09:30:38.882Z,90.10
2023-01-11T09:32:42.979Z,90.00
2023-01-11T09:34:46.885Z,90.10
2023-01-11T09:36:49.733Z,90.10
2023-01-11T09:38:52.963Z,90.00
2023-01-11T09:41:04.480Z,89.80
2023-01-11T09:43:11.320Z,90.00
2023-01-11T09:45:18.556Z,90.00
2023-01-11T09:47:32.609Z,90.00
2023-01-11T09:49:41.773Z,89.90
2023-01-11T09:51:46.172Z,90.10
2023-01-11T09:53:52.197Z,90.20
2023-01-11T09:55:58.098Z,90.20
2023-01-11T09:58:32.724Z,90.10
2023-01-11T10:00:49.533Z,90.10
2023-01-11T10:03:15.249Z,90.10
2023-01-11T10:05:50.073Z,90.20
2023-01-11T10:18:30.328Z,90.10
2023-01-11T10:18:45.503Z,90.10
2023-01-11T10:20:51.976Z,90.10
2023-01-11T10:23:01.657Z,90.10
2023-01-11T10:25:13.626Z,90.20
2023-01-11T10:27:21.974Z,90.10
2023-01-11T10:29:46.030Z,90.20
2023-01-11T10:32:13.540Z,90.30
2023-01-11T10:34:41.905Z,90.20
2023-01-11T10:37:10.876Z,90.10
2023-01-11T10:39:39.676Z,90.20
2023-01-11T10:41:54.875Z,90.30
2023-01-11T10:44:05.102Z,90.20
2023-01-11T10:46:12.089Z,90.00
2023-01-11T10:48:22.968Z,90.20
2023-01-11T10:50:31.032Z,90.30
2023-01-11T10:52:41.268Z,90.30
2023-01-11T10:54:47.433Z,90.40
2023-01-11T10:57:08.179Z,90.40
2023-01-11T10:59:31.357Z,90.50
2023-01-11T11:01:50.786Z,90.40
2023-01-11T11:04:03.321Z,90.50
2023-01-11T11:06:11.369Z,90.40
2023-01-11T11:08:26.993Z,90.50
2023-01-11T11:10:35.888Z,90.50
2023-01-11T11:12:40.692Z,90.40
2023-01-11T11:14:49.231Z,90.50
2023-01-11T11:17:03.368Z,90.80
2023-01-11T11:19:06.244Z,91.00
2023-01-11T11:21:22.736Z,91.00
2023-01-11T11:23:28.674Z,90.90
2023-01-11T11:25:33.699Z,90.80
2023-01-11T11:27:41.894Z,90.60
2023-01-11T11:29:50.234Z,90.80
2023-01-11T11:31:53.157Z,90.80
2023-01-11T11:33:56.289Z,90.90
2023-01-11T11:36:02.218Z,90.90
2023-01-11T11:38:05.680Z,91.00
2023-01-11T11:40:29.157Z,91.00
2023-01-11T11:42:31.917Z,90.90
2023-01-11T11:44:35.404Z,90.90
2023-01-11T11:46:38.147Z,90.70
2023-01-11T11:48:41.555Z,90.70
2023-01-11T11:50:45.747Z,90.60
2023-01-11T11:52:52.733Z,90.60
2023-01-11T11:54:59.099Z,90.60
2023-01-11T11:57:16.687Z,90.60
2023-01-11T11:59:22.460Z,90.50
2023-01-11T12:01:31.505Z,90.60
2023-01-11T12:03:34.970Z,90.60
2023-01-11T12:05:37.840Z,90.60
2023-01-11T12:07:54.735Z,90.50
2023-01-11T12:10:01.635Z,90.40
2023-01-11T12:12:06.829Z,90.40
2023-01-11T12:14:22.297Z,90.50
2023-01-11T12:16:30.547Z,90.50
2023-01-11T12:18:42.421Z,90.30
2023-01-11T12:20:47.182Z,90.60
2023-01-11T12:22:50.876Z,90.60
2023-01-11T12:25:06.712Z,90.50
2023-01-11T12:27:22.404Z,90.40
2023-01-11T12:29:49.216Z,90.50
2023-01-11T12:32:05.744Z,90.40
2023-01-11T12:34:25.296Z,90.30
2023-01-11T12:36:37.442Z,90.30
2023-01-11T12:38:44.704Z,90.20
2023-01-11T12:41:01.831Z,90.20
2023-01-11T12:43:23.544Z,90.40
2023-01-11T12:45:40.039Z,90.40
2023-01-11T12:48:06.211Z,90.40
2023-01-11T12:50:17.219Z,90.40
2023-01-11T12:53:08.054Z,90.30
2023-01-11T12:55:25.279Z,90.20
2023-01-11T12:57:35.116Z,90.40
2023-01-11T13:00:06.847Z,90.40
2023-01-11T13:02:26.875Z,90.40
2023-01-11T13:05:00.095Z,90.40
2023-01-11T13:07:12.884Z,90.30
2023-01-11T13:09:27.823Z,90.30
2023-01-11T13:11:45.809Z,90.20
2023-01-11T13:13:57.722Z,90.40
2023-01-11T13:16:08.218Z,90.30
2023-01-11T13:18:22.014Z,90.30
2023-01-11T13:20:48.604Z,90.30
2023-01-11T13:23:04.517Z,90.20
2023-01-11T13:25:17.838Z,90.30
2023-01-11T13:27:24.099Z,90.30
2023-01-11T13:29:30.460Z,90.30
2023-01-11T13:31:35.834Z,90.30
2023-01-11T13:33:43.171Z,90.30
2023-01-11T13:35:51.690Z,90.40
2023-01-11T13:37:59.505Z,90.40
2023-01-11T13:40:08.995Z,90.30
2023-01-11T13:42:17.895Z,90.30
2023-01-11T13:44:24.614Z,90.30
2023-01-11T13:46:43.129Z,90.30
2023-01-11T13:48:51.097Z,90.10
2023-01-11T13:50:59.660Z,90.30
2023-01-11T13:53:09.917Z,90.30
2023-01-11T13:55:25.490Z,90.30
2023-01-11T13:57:41.024Z,90.20
2023-01-11T13:59:46.373Z,90.30
2023-01-11T14:01:55.343Z,90.30
2023-01-11T14:04:03.065Z,90.60
2023-01-11T14:06:24.358Z,90.50
2023-01-11T14:08:49.958Z,90.60
2023-01-11T14:11:01.551Z,90.60
2023-01-11T14:14:05.406Z,90.30
2023-01-11T14:16:14.301Z,90.20
2023-01-11T14:18:30.281Z,90.30
2023-01-11T14:20:43.220Z,90.30
2023-01-11T14:22:53.773Z,90.30
2023-01-11T14:25:01.263Z,90.40
2023-01-11T14:27:25.543Z,90.20
2023-01-11T14:29:58.921Z,90.20
2023-01-11T14:32:31.858Z,90.20
2023-01-11T14:35:19.141Z,90.20
2023-01-11T14:37:39.847Z,90.20
2023-01-11T14:40:08.200Z,90.40
2023-01-11T14:42:36.070Z,90.20
2023-01-11T14:45:04.759Z,90.30
2023-01-11T14:47:27.395Z,90.30
2023-01-11T14:49:45.758Z,90.20
2023-01-11T14:51:57.397Z,90.30
2023-01-11T14:54:05.773Z,90.40
2023-01-11T14:56:53.494Z,90.40
2023-01-11T14:59:03.802Z,90.00
2023-01-11T15:01:11.751Z,90.30
2023-01-11T15:03:52.146Z,90.40
2023-01-11T15:05:58.930Z,90.40
2023-01-11T15:08:24.413Z,90.30
2023-01-11T15:10:46.660Z,90.20
2023-01-11T15:12:49.715Z,90.50
2023-01-11T15:14:56.325Z,90.50
2023-01-11T15:17:19.335Z,90.80
2023-01-11T15:19:28.326Z,90.70
2023-01-11T15:21:31.216Z,90.70
2023-01-11T15:23:39.441Z,90.80
2023-01-11T15:25:42.214Z,90.80
2023-01-11T15:27:44.959Z,90.60
2023-01-11T15:29:55.144Z,90.70
2023-01-11T15:32:19.833Z,90.90
2023-01-11T15:34:27.538Z,90.70
2023-01-11T15:36:55.616Z,90.90
2023-01-11T15:39:03.864Z,91.00
2023-01-11T15:41:25.280Z,91.00
2023-01-11T15:43:52.536Z,90.90
2023-01-11T15:46:51.286Z,90.80
2023-01-11T15:49:24.584Z,91.00
2023-01-11T15:51:52.306Z,91.10
2023-01-11T15:54:17.848Z,91.10
2023-01-11T15:56:42.343Z,91.10
2023-01-11T15:59:10.928Z,91.20
2023-01-11T16:01:23.529Z,91.10
2023-01-11T16:03:50.208Z,91.10
2023-01-11T16:05:59.684Z,91.20
2023-01-11T16:08:14.005Z,91.30
2023-01-11T16:10:31.956Z,91.00
2023-01-11T16:12:50.631Z,91.20
2023-01-11T16:15:15.565Z,91.30
2023-01-11T16:17:22.006Z,91.40
2023-01-11T16:19:29.615Z,91.30
2023-01-11T16:21:35.591Z,90.90
2023-01-11T16:23:39.749Z,91.00
2023-01-11T16:25:45.453Z,91.00
2023-01-11T16:27:53.225Z,90.90
2023-01-11T16:29:56.590Z,90.90
2023-01-11T16:32:02.171Z,90.80
2023-01-11T16:34:08.101Z,90.70
2023-01-11T16:36:16.005Z,90.80
2023-01-11T16:38:22.214Z,90.80
2023-01-11T16:40:29.421Z,90.70
2023-01-11T16:42:39.611Z,90.80
2023-01-11T16:44:46.801Z,90.80
2023-01-11T16:47:11.452Z,90.60
2023-01-11T16:49:18.116Z,90.40
2023-01-11T16:51:21.694Z,90.70
2023-01-11T16:53:25.665Z,90.40
2023-01-11T16:55:35.969Z,90.40
2023-01-11T16:57:43.393Z,90.40
2023-01-11T17:00:01.588Z,90.60
2023-01-11T17:02:24.893Z,90.10
2023-01-11T17:04:30.706Z,90.30
2023-01-11T17:06:35.940Z,90.30
2023-01-11T17:08:40.155Z,89.80
2023-01-11T17:10:43.520Z,90.00
2023-01-11T17:12:53.036Z,90.00
2023-01-11T17:15:08.194Z,90.00
2023-01-11T17:17:12.789Z,90.00
2023-01-11T17:19:17.519Z,89.80
2023-01-11T17:21:23.029Z,89.90
2023-01-11T17:23:25.773Z,89.40
2023-01-11T17:25:43.586Z,89.60
2023-01-11T17:27:55.106Z,89.50
2023-01-11T17:29:59.101Z,88.90
2023-01-11T17:32:03.829Z,88.50
2023-01-11T17:34:15.067Z,88.80
2023-01-11T17:36:18.023Z,88.90
2023-01-11T17:38:23.081Z,88.80
2023-01-11T17:40:29.399Z,88.30
2023-01-11T17:42:49.779Z,88.70
2023-01-11T17:45:13.352Z,88.70
2023-01-11T17:47:16.227Z,88.40
2023-01-11T17:49:23.737Z,88.10
2023-01-11T17:51:27.582Z,87.00
2023-01-11T17:53:32.431Z,86.80
2023-01-11T17:55:35.774Z,87.50
2023-01-11T17:57:38.470Z,87.60
2023-01-11T17:59:41.368Z,87.70
2023-01-11T18:01:49.254Z,87.60
2023-01-11T18:03:53.950Z,87.30
2023-01-11T18:05:56.831Z,87.00
2023-01-11T18:08:00.960Z,86.40
2023-01-11T18:10:04.038Z,86.50
2023-01-11T18:12:12.831Z,87.20
2023-01-11T18:14:20.659Z,87.60
2023-01-11T18:16:24.165Z,87.10
2023-01-11T18:18:44.146Z,86.60
2023-01-11T18:20:47.459Z,86.60
2023-01-11T18:23:04.530Z,86.40
2023-01-11T18:25:18.692Z,86.40
2023-01-11T18:27:32.958Z,86.30
2023-01-11T18:29:49.783Z,86.40
2023-01-11T18:31:52.605Z,86.10
2023-01-11T18:33:56.658Z,86.20
2023-01-11T18:36:01.742Z,86.20
2023-01-11T18:38:10.402Z,86.00
2023-01-11T18:40:14.555Z,85.90
2023-01-11T18:42:19.980Z,86.00
2023-01-11T18:44:22.702Z,85.90
2023-01-11T18:46:25.472Z,85.80
2023-01-11T18:48:28.276Z,86.10
2023-01-11T18:50:32.923Z,86.00
2023-01-11T18:52:37.114Z,85.90
2023-01-11T18:54:40.226Z,86.50
2023-01-11T18:56:43.367Z,86.30
2023-01-11T18:58:46.105Z,87.30
2023-01-11T19:00:48.904Z,86.70
2023-01-11T19:04:59.555Z,86.40
2023-01-11T19:07:03.610Z,86.00
2023-01-11T19:09:06.402Z,86.20
2023-01-11T19:11:09.116Z,86.30
2023-01-11T19:13:13.173Z,86.10
2023-01-11T19:15:16.663Z,86.00
2023-01-11T19:17:19.432Z,86.00
2023-01-11T19:19:22.123Z,85.50
2023-01-11T19:21:24.910Z,86.20
2023-01-11T19:23:29.010Z,86.80
2023-01-11T19:25:32.562Z,86.90
2023-01-11T19:27:35.339Z,86.80
2023-01-11T19:29:38.016Z,86.60
2023-01-11T19:31:40.836Z,85.80
2023-01-11T19:33:43.518Z,86.20
2023-01-11T19:35:49.154Z,86.40
2023-01-11T19:37:52.234Z,87.10
2023-01-11T19:39:56.389Z,87.50
2023-01-11T19:42:01.440Z,86.90
2023-01-11T19:44:04.303Z,86.90
2023-01-11T19:46:06.994Z,87.10
2023-01-11T19:48:10.853Z,87.00
2023-01-11T19:50:13.831Z,87.20
2023-01-11T19:52:19.255Z,87.40
2023-01-11T19:54:24.868Z,87.80
2023-01-11T19:56:28.929Z,87.60
2023-01-11T19:58:33.275Z,87.60
2023-01-11T20:00:36.403Z,87.30
2023-01-11T20:02:39.288Z,87.30
2023-01-11T20:04:42.342Z,87.30
2023-01-11T20:06:50.323Z,87.40
2023-01-11T20:08:53.027Z,87.40
2023-01-11T20:10:55.800Z,87.70
2023-01-11T20:12:59.870Z,87.60
2023-01-11T20:15:03.418Z,87.70
2023-01-11T20:17:06.189Z,87.70
2023-01-11T20:19:08.978Z,87.80
2023-01-11T20:21:11.869Z,88.00
2023-01-11T20:23:14.572Z,87.90
2023-01-11T20:25:17.958Z,88.10
2023-01-11T20:27:21.007Z,88.10
2023-01-11T20:29:25.137Z,87.90
2023-01-11T20:31:31.510Z,87.90
2023-01-11T20:33:34.366Z,88.10
2023-01-11T20:35:37.950Z,88.20
2023-01-11T20:37:40.740Z,88.10
2023-01-11T20:39:43.466Z,88.00
2023-01-11T20:41:49.682Z,88.10
2023-01-11T20:43:52.387Z,88.20
2023-01-11T20:45:59.239Z,88.10
2023-01-11T20:48:01.944Z,88.00
2023-01-11T20:50:05.317Z,87.80
2023-01-11T20:52:08.077Z,87.80
2023-01-11T20:54:11.520Z,87.50
2023-01-11T20:56:14.310Z,87.20
2023-01-11T20:58:17.045Z,87.60
2023-01-11T21:00:20.413Z,87.60
2023-01-11T21:02:24.598Z,87.40
2023-01-11T21:04:27.428Z,87.50
2023-01-11T21:06:32.814Z,87.60
2023-01-11T21:08:35.708Z,87.50
2023-01-11T21:10:38.427Z,87.50
2023-01-11T21:12:41.187Z,87.30
2023-01-11T21:14:43.931Z,87.40
2023-01-11T21:16:46.729Z,86.90
2023-01-11T21:18:55.210Z,87.20
2023-01-11T21:20:57.906Z,86.60
2023-01-11T21:23:00.611Z,86.90
2023-01-11T21:25:03.315Z,86.50
2023-01-11T21:27:06.642Z,86.20
2023-01-11T21:29:10.601Z,86.40
2023-01-11T21:31:13.874Z,86.10
2023-01-11T21:33:16.661Z,85.80
2023-01-11T21:35:20.821Z,86.30
2023-01-11T21:37:24.691Z,85.80
2023-01-11T21:39:27.640Z,86.00
2023-01-11T21:41:45.993Z,86.00
2023-01-11T21:43:48.872Z,85.30
2023-01-11T21:45:55.576Z,85.40
2023-01-11T21:47:58.320Z,85.60
2023-01-11T21:50:01.004Z,85.70
2023-01-11T21:52:05.170Z,85.60
2023-01-11T21:54:09.960Z,85.00
2023-01-11T21:56:12.707Z,85.20
2023-01-11T21:58:15.433Z,85.50
2023-01-11T22:00:19.186Z,85.30
2023-01-11T22:02:22.087Z,85.20
2023-01-11T22:04:24.802Z,85.00
2023-01-11T22:06:27.583Z,84.80
2023-01-11T22:08:35.549Z,85.00
2023-01-11T22:10:39.347Z,85.30
2023-01-11T22:12:42.212Z,84.90
2023-01-11T22:14:45.640Z,85.20
2023-01-11T22:16:48.433Z,85.20
2023-01-11T22:18:51.255Z,85.20
2023-01-11T22:20:54.128Z,85.20
2023-01-11T22:22:56.807Z,85.20
2023-01-11T22:25:00.825Z,85.10
2023-01-11T22:27:03.635Z,85.20
2023-01-11T22:29:15.069Z,85.30
2023-01-11T22:31:18.110Z,85.10
2023-01-11T22:33:21.022Z,85.10
2023-01-11T22:35:23.749Z,85.10
2023-01-11T22:37:26.499Z,85.20
2023-01-11T22:39:29.954Z,85.00
2023-01-11T22:41:34.082Z,84.80
2023-01-11T22:43:36.938Z,84.80
2023-01-11T22:45:39.709Z,85.30
2023-01-11T22:47:42.416Z,85.00
2023-01-11T22:49:45.353Z,85.10
2023-01-11T22:51:48.334Z,85.40
2023-01-11T22:53:52.520Z,85.10
2023-01-11T22:55:55.244Z,85.10
2023-01-11T22:57:59.245Z,84.50
2023-01-11T23:00:04.560Z,85.00
2023-01-11T23:02:07.396Z,84.90
2023-01-11T23:04:13.817Z,85.20
2023-01-11T23:06:18.958Z,84.60
2023-01-11T23:08:21.669Z,85.00
2023-01-11T23:10:24.560Z,85.00
2023-01-11T23:12:44.871Z,84.60
2023-01-11T23:14:48.992Z,84.40
2023-01-11T23:16:51.830Z,84.90
2023-01-11T23:18:54.565Z,84.60
2023-01-11T23:21:03.391Z,84.70
2023-01-11T23:23:06.156Z,83.50
2023-01-11T23:25:09.971Z,83.60
2023-01-11T23:27:12.810Z,83.20
2023-01-11T23:29:15.649Z,82.40
2023-01-11T23:31:22.542Z,82.50
2023-01-11T23:33:25.336Z,83.00
2023-01-11T23:35:28.097Z,82.40
2023-01-11T23:37:30.912Z,82.70
2023-01-11T23:39:33.634Z,82.60
2023-01-11T23:41:54.348Z,82.40
2023-01-11T23:43:57.563Z,82.70
2023-01-11T23:46:24.239Z,82.00
2023-01-11T23:48:27.950Z,82.60
2023-01-11T23:50:30.697Z,82.10
2023-01-11T23:52:33.867Z,82.30
2023-01-11T23:54:36.951Z,81.80
2023-01-11T23:56:40.659Z,82.20
2023-01-11T23:58:43.353Z,82.30
